Stations météo

réclame
Mon MeteoGroup
Sciacca, Italie (16436): Température de l'air & dewpoint: 12.01.2019 12:00:00 - 18.01.2019 12:00:00 (CET)Sciacca, Italie (16436): Vitesse du vent: 12.01.2019 12:00:00 - 18.01.2019 12:00:00 (CET)Sciacca, Italie (16436): Direction du vent: 12.01.2019 12:00:00 - 18.01.2019 12:00:00 (CET)Sciacca, Italie (16436): reduced air pressure: 12.01.2019 12:00:00 - 18.01.2019 12:00:00 (CET)Sciacca, Italie (16436): Quantités de précipitations: 12.01.2019 12:00:00 - 18.01.2019 12:00:00 (CET)
Date & Time tt [°C] td [°C] ff [km/h] ff [knt] dd ppp [hPa] rr [mm]
18.01.2019 12:00:00 15,9 12,0 2 1 SE 1027,0 -
18.01.2019 11:00:00 14,3 12,8 2 1 E 1028,2 -
18.01.2019 10:00:00 12,9 11,9 - - - 1028,6 -
18.01.2019 09:00:00 10,8 10,2 - - - 1028,7 -
18.01.2019 08:00:00 9,2 8,7 - - - 1028,3 -
18.01.2019 07:00:00 8,9 8,4 - - - 1028,0 0,0
18.01.2019 06:00:00 8,9 8,6 - - - 1027,8 -
18.01.2019 05:00:00 8,9 8,6 - - - 1028,1 -
18.01.2019 04:00:00 9,1 8,6 - - - 1028,3 -
18.01.2019 03:00:00 9,5 9,2 - - - 1028,7 -
18.01.2019 02:00:00 9,7 9,4 - - - 1028,8 -
18.01.2019 01:00:00 10,0 9,7 - - - 1029,1 0,0
18.01.2019 00:00:00 10,1 9,8 - - - 1029,8 -
17.01.2019 23:00:00 10,5 10,0 - - - 1030,0 -
17.01.2019 22:00:00 10,5 10,0 - - - 1029,9 -
17.01.2019 21:00:00 10,7 10,2 - - - 1029,7 -
17.01.2019 20:00:00 10,4 9,8 0 0 N 1029,7 -
17.01.2019 19:00:00 10,8 9,9 0 0 N 1029,5 0,0
17.01.2019 18:00:00 12,0 11,1 8 4 ESE 1029,0 -
17.01.2019 17:00:00 12,6 11,5 0 0 N 1029,0 -
17.01.2019 16:00:00 12,9 11,5 9 5 SE 1028,9 -
17.01.2019 15:00:00 13,9 12,3 5 3 SE 1029,1 -
17.01.2019 14:00:00 15,1 13,2 8 4 SE 1029,2 -
17.01.2019 13:00:00 15,1 13,2 9 5 SSE 1030,1 0,0
17.01.2019 12:00:00 15,1 12,8 2 1 SE 1030,9 -
17.01.2019 11:00:00 13,8 12,5 0 0 N 1031,9 -
17.01.2019 10:00:00 12,9 12,3 - - - 1032,2 -
17.01.2019 09:00:00 10,7 10,2 0 0 N 1032,3 -
17.01.2019 08:00:00 9,7 9,1 0 0 N 1032,4 -
17.01.2019 07:00:00 10,1 9,5 0 0 N 1032,4 0,0
17.01.2019 06:00:00 9,7 9,1 4 2 NNE 1032,3 -
17.01.2019 05:00:00 9,5 8,9 4 2 NE 1032,5 -
17.01.2019 04:00:00 9,6 8,8 0 0 N 1033,2 -
17.01.2019 03:00:00 9,7 8,9 2 1 NE 1033,8 -
17.01.2019 02:00:00 9,9 9,0 4 2 NE 1034,1 -
17.01.2019 01:00:00 9,4 8,5 2 1 NNE 1034,5 0,0
17.01.2019 00:00:00 9,1 8,0 - - - 1035,1 -
16.01.2019 23:00:00 9,3 8,2 - - - 1035,6 -
16.01.2019 22:00:00 9,1 8,0 - - - 1035,4 -
16.01.2019 21:00:00 8,7 7,8 - - - 1035,2 -
16.01.2019 20:00:00 8,6 7,5 0 0 N 1035,1 -
16.01.2019 19:00:00 8,6 7,4 0 0 N 1034,8 0,0
16.01.2019 18:00:00 9,9 7,5 2 1 ENE 1034,4 -
16.01.2019 17:00:00 12,0 8,6 11 6 ESE 1034,0 -
16.01.2019 16:00:00 13,3 9,3 8 4 ESE 1034,0 -
16.01.2019 15:00:00 13,4 7,3 9 5 SE 1034,2 -
16.01.2019 14:00:00 13,5 7,4 11 6 SE 1034,5 -
16.01.2019 13:00:00 13,3 6,3 11 6 SE 1035,4 0,0
16.01.2019 12:00:00 13,1 5,7 11 6 ESE 1036,3 -
16.01.2019 11:00:00 12,4 5,7 9 5 E 1037,2 -
16.01.2019 10:00:00 10,4 3,8 - - - 1037,2 -
16.01.2019 09:00:00 7,7 1,7 5 3 NNE 1037,2 -
16.01.2019 08:00:00 6,0 0,3 8 4 NE 1036,9 -
16.01.2019 07:00:00 5,6 0,3 5 3 NNE 1036,5 0,0
16.01.2019 06:00:00 5,1 0,2 8 4 NNE 1036,1 -
16.01.2019 05:00:00 5,1 0,4 8 4 NE 1036,0 -
16.01.2019 04:00:00 5,5 2,6 11 6 NNE 1035,9 -
16.01.2019 03:00:00 5,3 1,4 8 4 NNE 1035,7 -
16.01.2019 02:00:00 6,0 0,3 - - - 1035,6 -
16.01.2019 01:00:00 8,4 3,0 - - - 1034,8 0,0
16.01.2019 00:00:00 7,3 2,9 - - - 1035,3 -
15.01.2019 23:00:00 5,8 3,3 - - - 1035,2 -
15.01.2019 22:00:00 5,7 1,6 - - - 1034,6 -
15.01.2019 21:00:00 6,3 3,1 2 1 N 1033,7 -
15.01.2019 20:00:00 7,5 3,1 2 1 N 1032,7 -
15.01.2019 19:00:00 7,7 4,2 0 0 N 1031,5 0,0
15.01.2019 18:00:00 10,7 2,7 13 7 N 1030,1 -
15.01.2019 17:00:00 12,1 2,7 13 7 N 1028,8 -
15.01.2019 16:00:00 14,1 4,0 9 5 N 1027,7 -
15.01.2019 15:00:00 15,0 5,1 16 9 N 1026,7 -
15.01.2019 14:00:00 15,1 6,3 13 7 N 1026,2 -
15.01.2019 13:00:00 15,3 7,5 13 7 N 1026,1 0,0
15.01.2019 12:00:00 14,7 6,9 15 8 N 1026,4 -
15.01.2019 11:00:00 14,3 8,2 13 7 NNW 1026,7 -
15.01.2019 10:00:00 13,0 11,4 13 7 NNW 1026,2 -
15.01.2019 09:00:00 11,5 10,1 9 5 NW 1025,2 -
15.01.2019 08:00:00 10,7 9,3 11 6 NNW 1024,3 -
15.01.2019 07:00:00 10,3 8,4 11 6 NNW 1023,6 0,0
15.01.2019 06:00:00 10,6 9,3 9 5 N 1022,8 -
15.01.2019 05:00:00 11,3 9,7 5 3 SSW 1021,7 -
15.01.2019 04:00:00 11,1 9,5 9 5 ENE 1021,4 -
15.01.2019 03:00:00 10,8 9,5 4 2 ESE 1021,4 -
15.01.2019 02:00:00 11,2 9,9 11 6 W 1020,5 -
15.01.2019 01:00:00 11,4 10,1 9 5 NNW 1020,0 0,0
15.01.2019 00:00:00 11,3 10,2 5 3 S 1019,4 -
14.01.2019 23:00:00 11,5 10,4 4 2 NW 1019,3 -
14.01.2019 22:00:00 11,5 10,2 13 7 N 1018,8 -
14.01.2019 21:00:00 11,7 10,3 11 6 N 1018,2 -
14.01.2019 20:00:00 11,6 10,2 2 1 SSW 1017,4 -
14.01.2019 19:00:00 12,3 10,9 8 4 E 1016,5 0,0
14.01.2019 18:00:00 12,1 10,8 4 2 SSE 1015,7 -
14.01.2019 17:00:00 12,6 11,5 15 8 S 1015,0 -
14.01.2019 16:00:00 13,1 11,6 16 9 SW 1014,3 -
14.01.2019 15:00:00 12,8 11,7 24 13 WSW 1013,7 -
14.01.2019 14:00:00 12,6 11,5 28 15 WSW 1013,5 -
14.01.2019 13:00:00 12,3 11,5 34 18 WSW 1014,1 -
14.01.2019 12:00:00 12,6 11,3 35 19 WSW 1014,9 -
14.01.2019 11:00:00 12,1 11,5 28 15 WSW 1016,2 -
14.01.2019 10:00:00 11,5 11,3 16 9 W 1016,8 -
14.01.2019 09:00:00 11,5 11,2 28 15 W 1017,5 -
14.01.2019 08:00:00 10,9 10,6 15 8 WNW 1018,0 -
14.01.2019 07:00:00 10,4 9,8 11 6 WNW 1019,0 0,0
14.01.2019 06:00:00 10,9 10,0 5 3 S 1019,9 -
14.01.2019 05:00:00 10,8 9,9 - - - 1021,0 -
14.01.2019 04:00:00 10,8 9,9 8 4 NNW 1021,8 -
14.01.2019 03:00:00 10,6 9,3 4 2 SSW 1022,7 -
14.01.2019 02:00:00 9,9 8,5 4 2 NNW 1023,0 -
14.01.2019 01:00:00 9,7 8,3 - - - 1023,3 0,0
14.01.2019 00:00:00 10,0 8,7 - - - 1023,6 -
13.01.2019 23:00:00 9,5 8,1 - - - 1024,0 -
13.01.2019 22:00:00 9,7 8,1 - - - 1024,3 -
13.01.2019 21:00:00 9,2 8,0 - - - 1024,0 -
13.01.2019 20:00:00 8,8 7,6 4 2 W 1023,8 -
13.01.2019 19:00:00 9,2 8,1 5 3 N 1023,6 0,0
13.01.2019 18:00:00 9,9 9,1 4 2 N 1023,2 -
13.01.2019 17:00:00 9,8 9,2 21 11 WSW 1023,4 -
13.01.2019 16:00:00 10,2 9,4 0 0 N 1023,7 -
13.01.2019 15:00:00 10,9 9,5 21 11 W 1024,4 -
13.01.2019 14:00:00 10,9 9,5 4 2 NW 1025,3 -
13.01.2019 13:00:00 10,3 8,9 15 8 W 1025,9 0,0
13.01.2019 12:00:00 12,3 9,1 15 8 W 1026,8 -
13.01.2019 11:00:00 11,2 5,7 8 4 WSW 1028,4 -
13.01.2019 10:00:00 10,6 5,3 - - - 1028,7 -
13.01.2019 09:00:00 9,6 5,9 - - - 1028,4 -
13.01.2019 08:00:00 8,2 6,0 2 1 S 1028,9 -
13.01.2019 07:00:00 8,1 5,5 5 3 WNW 1029,1 0,0
13.01.2019 06:00:00 7,5 4,8 2 1 NNE 1029,2 -
13.01.2019 05:00:00 7,7 5,1 2 1 NNW 1029,1 -
13.01.2019 04:00:00 7,6 5,0 8 4 NW 1029,4 -
13.01.2019 03:00:00 7,4 3,0 2 1 N 1029,9 -
13.01.2019 02:00:00 6,7 2,3 0 0 N 1030,0 -
13.01.2019 01:00:00 7,0 2,8 9 5 E 1030,3 0,0
13.01.2019 00:00:00 6,8 2,4 15 8 NNW 1030,5 -
12.01.2019 23:00:00 7,0 2,6 9 5 NNW 1030,9 -
12.01.2019 22:00:00 5,5 1,4 - - - 1030,9 -
12.01.2019 21:00:00 6,8 2,4 - - - 1030,3 -
12.01.2019 20:00:00 6,7 2,3 13 7 N 1030,1 -
12.01.2019 19:00:00 6,6 4,4 8 4 NW 1029,9 0,0
12.01.2019 18:00:00 6,7 4,8 4 2 SSE 1029,3 -
12.01.2019 17:00:00 6,4 4,5 24 13 N 1028,9 -
12.01.2019 16:00:00 8,8 6,6 15 8 NNW 1028,0 -
12.01.2019 15:00:00 7,2 6,0 2 1 N 1028,3 -
12.01.2019 14:00:00 9,9 3,1 18 10 NNW 1027,6 -
12.01.2019 13:00:00 9,2 3,3 15 8 N 1027,6 0,0
12.01.2019 12:00:00 10,8 3,3 9 5 N 1027,6 -

tt = Température de l'air
td = dewpoint
ff = Vitesse du vent
dd = Direction du vent
ppp = reduced air pressure
rr = Quantités de précipitations

stations d'obs. à proximité